Acaiaca, Brazil
Current Conditions -  °F | °C
As of 7:00 PM on Friday 24 Oct 2014 (Local Time) from SBPR Reporting Station
Broken Clouds Broken Clouds  
Wind Chill: 81°   Ceiling: 3000
Heat Index: 81°   Visibility: 6mi
Dew Point: 57°   Wind: 13mph
Humidity: 45%   Direction: 140°SE
Pressure: 29.97"   Gusts: NA
Location:  20.36°S, 43.14°W
Report Text: SBPR 242100Z 14011KT 9999 BKN030 27/14 Q1015
Loading
Personal Weather Stations






























Interactive Weather Map
Tropical Storm Tracking
New forecast layout! Learn more

10-Day Weather Forecast

Advertisements
Track Severe Weather on mobile